createdAt,value
2018-02-01T00:01:02.999Z,8.00
2018-02-01T00:03:30.499Z,8.00
2018-02-01T00:05:58.037Z,8.00
2018-02-01T00:08:25.569Z,8.00
2018-02-01T00:10:53.116Z,8.10
2018-02-01T00:13:20.652Z,8.10
2018-02-01T00:15:48.183Z,8.00
2018-02-01T00:18:15.672Z,8.00
2018-02-01T00:20:43.960Z,8.10
2018-02-01T00:23:11.509Z,8.10
2018-02-01T00:25:39.780Z,8.10
2018-02-01T00:28:08.048Z,8.10
2018-02-01T00:30:36.331Z,8.10
2018-02-01T00:33:04.620Z,8.00
2018-02-01T00:35:32.137Z,8.00
2018-02-01T00:37:59.640Z,8.10
2018-02-01T00:40:27.136Z,8.10
2018-02-01T00:42:54.660Z,8.10
2018-02-01T00:45:22.164Z,8.20
2018-02-01T00:47:49.801Z,8.20
2018-02-01T00:50:17.324Z,8.20
2018-02-01T00:52:44.821Z,8.20
2018-02-01T00:55:12.344Z,8.20
2018-02-01T00:57:39.840Z,8.20
2018-02-01T01:00:07.370Z,8.20
2018-02-01T01:02:34.868Z,8.20
2018-02-01T01:05:02.382Z,8.30
2018-02-01T01:07:29.879Z,8.30
2018-02-01T01:09:57.388Z,8.40
2018-02-01T01:12:24.895Z,8.40
2018-02-01T01:14:52.409Z,8.50
2018-02-01T01:17:19.923Z,8.50
2018-02-01T01:19:47.411Z,8.40
2018-02-01T01:22:14.939Z,8.30
2018-02-01T01:24:42.440Z,8.30
2018-02-01T01:27:09.967Z,8.20
2018-02-01T01:29:38.240Z,8.10
2018-02-01T01:32:06.554Z,8.00
2018-02-01T01:34:34.084Z,8.00
2018-02-01T01:37:02.342Z,7.90
2018-02-01T01:39:30.019Z,7.90
2018-02-01T01:41:58.288Z,7.80
2018-02-01T01:44:26.574Z,7.80
2018-02-01T01:46:54.860Z,7.70
2018-02-01T01:49:22.373Z,7.70
2018-02-01T01:51:49.907Z,7.70
2018-02-01T01:54:17.758Z,7.60
2018-02-01T01:56:45.267Z,7.60
2018-02-01T01:59:12.756Z,7.60
2018-02-01T02:01:40.296Z,7.60
2018-02-01T02:04:08.572Z,7.50
2018-02-01T02:06:36.844Z,7.50
2018-02-01T02:09:05.141Z,7.40
2018-02-01T02:11:32.651Z,7.40
2018-02-01T02:14:00.179Z,7.50
2018-02-01T02:16:27.674Z,7.40
2018-02-01T02:18:55.191Z,7.40
2018-02-01T02:21:22.693Z,7.50
2018-02-01T02:23:50.975Z,7.40
2018-02-01T02:26:18.573Z,7.30
2018-02-01T02:28:46.090Z,7.30
2018-02-01T02:31:13.656Z,7.30
2018-02-01T02:33:41.913Z,7.30
2018-02-01T02:36:09.439Z,7.30
2018-02-01T02:38:36.942Z,7.30
2018-02-01T02:41:05.225Z,7.30
2018-02-01T02:43:33.504Z,7.30
2018-02-01T02:46:01.804Z,7.30
2018-02-01T02:48:29.368Z,7.30
2018-02-01T02:50:56.859Z,7.30
2018-02-01T02:53:24.384Z,7.30
2018-02-01T02:55:51.881Z,7.30
2018-02-01T02:58:19.388Z,7.30
2018-02-01T03:00:46.897Z,7.30
2018-02-01T03:03:14.421Z,7.30
2018-02-01T03:05:41.951Z,7.30
2018-02-01T03:08:09.436Z,7.30
2018-02-01T03:10:36.959Z,7.40
2018-02-01T03:13:05.209Z,7.40
2018-02-01T03:15:32.697Z,7.40
2018-02-01T03:18:00.972Z,7.30
2018-02-01T03:20:28.492Z,7.30
2018-02-01T03:22:56.015Z,7.30
2018-02-01T03:25:23.505Z,7.30
2018-02-01T03:27:51.063Z,7.30
2018-02-01T03:30:18.549Z,7.30
2018-02-01T03:32:46.802Z,7.40
2018-02-01T03:35:14.315Z,7.40
2018-02-01T03:37:41.808Z,7.40
2018-02-01T03:40:09.339Z,7.40
2018-02-01T03:42:36.827Z,7.40
2018-02-01T03:45:05.132Z,7.40
2018-02-01T03:47:33.384Z,7.40
2018-02-01T03:50:00.924Z,7.40
2018-02-01T03:52:28.417Z,7.30
2018-02-01T03:54:56.671Z,7.30
2018-02-01T03:57:24.199Z,7.30
2018-02-01T03:59:51.696Z,7.30
2018-02-01T04:02:19.999Z,7.30
2018-02-01T04:04:47.500Z,7.30
2018-02-01T04:07:15.019Z,7.30
2018-02-01T04:09:42.530Z,7.30
2018-02-01T04:12:10.023Z,7.30
2018-02-01T04:14:38.322Z,7.20
2018-02-01T04:17:05.816Z,7.30
2018-02-01T04:19:33.340Z,7.20
2018-02-01T04:22:00.835Z,7.20
2018-02-01T04:24:28.391Z,7.20
2018-02-01T04:26:55.884Z,7.20
2018-02-01T04:29:23.391Z,7.10
2018-02-01T04:31:50.891Z,7.00
2018-02-01T04:34:19.174Z,6.90
2018-02-01T04:36:47.458Z,6.90
2018-02-01T04:39:14.975Z,6.90
2018-02-01T04:41:43.254Z,6.90
2018-02-01T04:44:10.752Z,6.90
2018-02-01T04:46:38.290Z,6.90
2018-02-01T04:49:06.574Z,6.90
2018-02-01T04:51:34.840Z,7.00
2018-02-01T04:54:02.372Z,6.90
2018-02-01T04:56:29.895Z,6.90
2018-02-01T04:58:57.400Z,6.90
2018-02-01T05:01:24.901Z,6.90
2018-02-01T05:03:52.420Z,7.00
2018-02-01T05:06:20.682Z,6.90
2018-02-01T05:08:48.223Z,6.90
2018-02-01T05:11:15.754Z,6.90
2018-02-01T05:13:43.314Z,6.90
2018-02-01T05:16:10.845Z,7.00
2018-02-01T05:18:38.359Z,6.90
2018-02-01T05:21:05.844Z,7.00
2018-02-01T05:23:34.120Z,7.00
2018-02-01T05:26:02.406Z,7.00
2018-02-01T05:28:30.681Z,7.00
2018-02-01T05:30:59.001Z,7.00
2018-02-01T05:33:26.506Z,7.00
2018-02-01T05:35:54.792Z,6.80
2018-02-01T05:38:22.285Z,6.80
2018-02-01T05:40:49.845Z,6.70
2018-02-01T05:43:17.347Z,6.70
2018-02-01T05:45:46.348Z,6.60
2018-02-01T05:48:14.662Z,6.60
2018-02-01T05:50:42.173Z,6.50
2018-02-01T05:53:10.468Z,6.50
2018-02-01T05:55:38.032Z,6.50
2018-02-01T05:58:05.517Z,6.50
2018-02-01T06:00:33.056Z,6.40
2018-02-01T06:03:00.568Z,6.40
2018-02-01T06:05:28.860Z,6.40
2018-02-01T06:07:57.135Z,6.30
2018-02-01T06:10:26.288Z,6.30
2018-02-01T06:12:53.819Z,6.30
2018-02-01T06:15:21.324Z,6.30
2018-02-01T06:17:48.854Z,6.30
2018-02-01T06:20:16.355Z,6.30
2018-02-01T06:22:43.863Z,6.30
2018-02-01T06:25:11.375Z,6.20
2018-02-01T06:27:39.628Z,6.30
2018-02-01T06:30:07.150Z,6.30
2018-02-01T06:32:34.635Z,6.20
2018-02-01T06:35:02.181Z,6.20
2018-02-01T06:37:30.518Z,6.10
2018-02-01T06:39:58.020Z,6.10
2018-02-01T06:42:25.562Z,6.10
2018-02-01T06:44:53.084Z,6.10
2018-02-01T06:47:21.380Z,6.10
2018-02-01T06:49:48.876Z,6.10
2018-02-01T06:52:16.403Z,6.10
2018-02-01T06:54:43.893Z,6.20
2018-02-01T06:57:11.410Z,6.20
2018-02-01T06:59:38.913Z,6.20
2018-02-01T07:02:06.509Z,6.20
2018-02-01T07:04:34.004Z,6.10
2018-02-01T07:07:01.494Z,6.10
2018-02-01T07:09:29.016Z,6.10
2018-02-01T07:11:56.516Z,6.20
2018-02-01T07:14:24.801Z,6.20
2018-02-01T07:16:53.067Z,6.10
2018-02-01T07:19:21.350Z,6.10
2018-02-01T07:21:49.609Z,6.10
2018-02-01T07:24:17.908Z,6.20
2018-02-01T07:26:45.432Z,6.20
2018-02-01T07:29:12.921Z,6.30
2018-02-01T07:31:41.334Z,6.30
2018-02-01T07:34:08.848Z,6.30
2018-02-01T07:36:37.175Z,6.30
2018-02-01T07:39:04.664Z,6.30
2018-02-01T07:41:32.169Z,6.30
2018-02-01T07:43:59.700Z,6.30
2018-02-01T07:46:29.505Z,6.30
2018-02-01T07:48:57.036Z,6.30
2018-02-01T07:51:24.540Z,6.30
2018-02-01T07:53:52.052Z,6.40
2018-02-01T07:56:19.566Z,6.40
2018-02-01T07:58:47.076Z,6.40
2018-02-01T08:01:14.619Z,6.40
2018-02-01T08:03:42.120Z,6.40
2018-02-01T08:06:09.630Z,6.40
2018-02-01T08:08:37.201Z,6.40
2018-02-01T08:11:05.480Z,6.40
2018-02-01T08:13:32.991Z,6.40
2018-02-01T08:16:00.492Z,6.40
2018-02-01T08:18:28.002Z,6.50
2018-02-01T08:20:55.524Z,6.50
2018-02-01T08:23:23.072Z,6.50
2018-02-01T08:25:50.580Z,6.40
2018-02-01T08:28:18.087Z,6.50
2018-02-01T08:30:45.623Z,6.40
2018-02-01T08:33:13.129Z,6.40
2018-02-01T08:35:40.657Z,6.50
2018-02-01T08:38:08.154Z,6.50
2018-02-01T08:40:35.669Z,6.60
2018-02-01T08:43:03.160Z,6.60
2018-02-01T08:45:31.444Z,6.70
2018-02-01T08:47:58.936Z,6.70
2018-02-01T08:50:26.441Z,6.80
2018-02-01T08:52:54.712Z,6.90
2018-02-01T08:55:23.001Z,6.90
2018-02-01T08:57:50.500Z,7.00
2018-02-01T09:00:17.991Z,7.00
2018-02-01T09:02:45.502Z,7.00
2018-02-01T09:05:13.023Z,7.10
2018-02-01T09:07:41.317Z,7.10
2018-02-01T09:10:08.825Z,7.10
2018-02-01T09:12:36.375Z,7.10
2018-02-01T09:15:03.899Z,7.10
2018-02-01T09:17:31.403Z,7.10
2018-02-01T09:19:58.926Z,7.10
2018-02-01T09:22:26.421Z,7.00
2018-02-01T09:24:53.947Z,7.00
2018-02-01T09:27:21.431Z,7.00
2018-02-01T09:29:48.986Z,7.00
2018-02-01T09:32:16.495Z,7.00
2018-02-01T09:34:43.991Z,7.10
2018-02-01T09:37:11.507Z,7.10
2018-02-01T09:39:39.012Z,7.10
2018-02-01T09:42:06.540Z,7.10
2018-02-01T09:44:34.024Z,7.10
2018-02-01T09:47:01.541Z,7.10
2018-02-01T09:49:29.041Z,7.10
2018-02-01T09:51:56.594Z,7.10
2018-02-01T09:54:24.077Z,7.10
2018-02-01T09:56:52.346Z,7.20
2018-02-01T09:59:19.860Z,7.10
2018-02-01T10:01:47.372Z,7.20
2018-02-01T10:04:15.686Z,7.10
2018-02-01T10:06:43.195Z,7.10
2018-02-01T10:09:10.751Z,7.10
2018-02-01T10:11:38.256Z,7.10
2018-02-01T10:14:05.759Z,7.10
2018-02-01T10:16:33.272Z,7.20
2018-02-01T10:19:00.892Z,7.20
2018-02-01T10:21:29.177Z,7.20
2018-02-01T10:23:57.431Z,7.30
2018-02-01T10:26:24.960Z,7.30
2018-02-01T10:28:52.471Z,7.30
2018-02-01T10:31:20.760Z,7.40
2018-02-01T10:33:48.277Z,7.40
2018-02-01T10:36:15.771Z,7.40
2018-02-01T10:38:43.371Z,7.50
2018-02-01T10:41:10.875Z,7.50
2018-02-01T10:43:39.886Z,7.50
2018-02-01T10:46:07.368Z,7.50
2018-02-01T10:48:34.882Z,7.50
2018-02-01T10:51:03.143Z,7.40
2018-02-01T10:53:31.439Z,7.40
2018-02-01T10:55:58.942Z,7.40
2018-02-01T10:58:26.456Z,7.40
2018-02-01T11:00:53.993Z,7.40
2018-02-01T11:03:22.261Z,7.40
2018-02-01T11:05:49.776Z,7.40
2018-02-01T11:08:17.275Z,7.40
2018-02-01T11:10:46.295Z,7.40
2018-02-01T11:13:13.792Z,7.40
2018-02-01T11:15:41.296Z,7.50
2018-02-01T11:18:09.616Z,7.50
2018-02-01T11:20:37.151Z,7.50
2018-02-01T11:23:04.671Z,7.50
2018-02-01T11:25:32.201Z,7.50
2018-02-01T11:27:59.729Z,7.50
2018-02-01T11:30:27.264Z,7.50
2018-02-01T11:32:55.519Z,7.60
2018-02-01T11:35:23.033Z,7.60
2018-02-01T11:37:50.542Z,7.60
2018-02-01T11:40:18.091Z,7.60
2018-02-01T11:42:45.585Z,7.60
2018-02-01T11:45:13.107Z,7.60
2018-02-01T11:47:40.623Z,7.50
2018-02-01T11:50:08.160Z,7.50
2018-02-01T11:52:35.651Z,7.50
2018-02-01T11:55:03.180Z,7.50
2018-02-01T11:57:30.686Z,7.50
2018-02-01T11:59:58.200Z,7.50
2018-02-01T12:02:25.725Z,7.50
2018-02-01T12:04:54.006Z,7.50
2018-02-01T12:07:22.295Z,7.50
2018-02-01T12:09:49.793Z,7.40
2018-02-01T12:12:17.328Z,7.40
2018-02-01T12:14:44.841Z,7.40
2018-02-01T12:17:13.154Z,7.40
2018-02-01T12:19:40.659Z,7.40
2018-02-01T12:22:08.159Z,7.40
2018-02-01T12:24:35.679Z,7.30
2018-02-01T12:27:03.176Z,7.30
2018-02-01T12:29:30.697Z,7.30
2018-02-01T12:31:58.233Z,7.20
2018-02-01T12:34:25.763Z,7.00
2018-02-01T12:36:53.301Z,7.00
2018-02-01T12:39:21.575Z,7.10
2018-02-01T12:41:49.874Z,7.20
2018-02-01T12:44:17.375Z,7.10
2018-02-01T12:46:44.895Z,7.20
2018-02-01T12:49:12.403Z,7.20
2018-02-01T12:51:39.920Z,7.30
2018-02-01T12:54:07.434Z,7.40
2018-02-01T12:56:34.964Z,7.40
2018-02-01T12:59:02.499Z,7.40
2018-02-01T13:01:30.019Z,7.50
2018-02-01T13:03:57.575Z,7.50
2018-02-01T13:06:25.074Z,7.50
2018-02-01T13:08:52.612Z,7.50
2018-02-01T13:11:20.108Z,7.60
2018-02-01T13:13:47.608Z,7.40
2018-02-01T13:16:15.136Z,7.20
2018-02-01T13:18:42.684Z,7.20
2018-02-01T13:21:10.184Z,7.30
2018-02-01T13:23:37.688Z,7.10
2018-02-01T13:26:05.215Z,7.10
2018-02-01T13:28:32.716Z,7.10
2018-02-01T13:31:00.246Z,7.00
2018-02-01T13:33:27.740Z,7.00
2018-02-01T13:35:55.238Z,7.00
2018-02-01T13:38:22.756Z,7.00
2018-02-01T13:40:51.022Z,7.10
2018-02-01T13:43:18.552Z,7.10
2018-02-01T13:45:46.055Z,7.20
2018-02-01T13:48:14.361Z,7.10
2018-02-01T13:50:41.882Z,7.10
2018-02-01T13:53:10.183Z,7.20
2018-02-01T13:55:37.688Z,7.10
2018-02-01T13:58:05.181Z,7.20
2018-02-01T14:00:33.474Z,7.30
2018-02-01T14:03:01.167Z,7.20
2018-02-01T14:05:28.691Z,7.30
2018-02-01T14:07:56.183Z,7.30
2018-02-01T14:10:23.749Z,7.30
2018-02-01T14:12:51.243Z,7.20
2018-02-01T14:15:19.613Z,7.20
2018-02-01T14:17:47.141Z,7.20
2018-02-01T14:20:14.635Z,7.20
2018-02-01T14:22:42.918Z,7.30
2018-02-01T14:25:11.203Z,7.30
2018-02-01T14:27:38.732Z,7.30
2018-02-01T14:30:06.282Z,7.40
2018-02-01T14:32:33.786Z,7.40
2018-02-01T14:35:01.353Z,7.30
2018-02-01T14:37:28.840Z,7.30
2018-02-01T14:39:56.356Z,7.10
2018-02-01T14:42:23.881Z,7.00
2018-02-01T14:44:51.408Z,7.00
2018-02-01T14:47:18.925Z,7.00
2018-02-01T14:49:46.447Z,7.00
2018-02-01T14:52:13.963Z,6.90
2018-02-01T14:54:41.515Z,6.90
2018-02-01T14:57:09.050Z,7.00
2018-02-01T14:59:37.330Z,7.10
2018-02-01T15:02:04.884Z,7.10
2018-02-01T15:04:32.433Z,7.10
2018-02-01T15:07:00.723Z,7.10
2018-02-01T15:09:28.223Z,7.10
2018-02-01T15:11:55.730Z,7.10
2018-02-01T15:14:24.029Z,7.10
2018-02-01T15:16:51.539Z,7.10
2018-02-01T15:19:19.072Z,7.10
2018-02-01T15:21:46.576Z,7.10
2018-02-01T15:24:14.880Z,7.00
2018-02-01T15:26:42.419Z,7.00
2018-02-01T15:29:09.935Z,7.00
2018-02-01T15:31:37.478Z,6.90
2018-02-01T15:34:04.976Z,6.70
2018-02-01T15:36:33.284Z,6.70
2018-02-01T15:39:00.793Z,6.60
2018-02-01T15:41:28.329Z,6.60
2018-02-01T15:43:55.896Z,6.70
2018-02-01T15:46:23.436Z,6.70
2018-02-01T15:48:50.944Z,6.70
2018-02-01T15:51:19.217Z,6.60
2018-02-01T15:53:47.492Z,6.60
2018-02-01T15:56:15.757Z,6.50
2018-02-01T15:58:43.278Z,6.40
2018-02-01T16:01:10.788Z,6.30
2018-02-01T16:03:39.089Z,6.30
2018-02-01T16:06:06.593Z,6.30
2018-02-01T16:08:34.122Z,6.20
2018-02-01T16:11:01.652Z,6.20
2018-02-01T16:13:29.178Z,6.10
2018-02-01T16:15:57.477Z,6.20
2018-02-01T16:18:24.979Z,6.20
2018-02-01T16:20:52.526Z,6.20
2018-02-01T16:23:20.047Z,6.10
2018-02-01T16:25:47.575Z,6.10
2018-02-01T16:28:15.089Z,6.20
2018-02-01T16:30:42.608Z,6.20
2018-02-01T16:33:10.934Z,6.10
2018-02-01T16:35:38.432Z,6.10
2018-02-01T16:38:05.966Z,6.10
2018-02-01T16:40:33.481Z,6.10
2018-02-01T16:43:01.005Z,6.10
2018-02-01T16:45:28.526Z,6.20
2018-02-01T16:47:56.202Z,6.20
2018-02-01T16:50:23.716Z,6.20
2018-02-01T16:52:51.240Z,6.20
2018-02-01T16:55:18.768Z,6.10
2018-02-01T16:57:46.288Z,6.10
2018-02-01T17:00:13.789Z,6.10
2018-02-01T17:02:41.318Z,6.10
2018-02-01T17:05:08.876Z,6.20
2018-02-01T17:07:36.410Z,6.30
2018-02-01T17:10:03.912Z,6.30
2018-02-01T17:12:31.419Z,6.30
2018-02-01T17:14:59.724Z,6.20
2018-02-01T17:17:27.232Z,6.20
2018-02-01T17:19:54.760Z,6.20
2018-02-01T17:22:22.315Z,6.20
2018-02-01T17:24:49.880Z,6.10
2018-02-01T17:27:17.407Z,6.20
2018-02-01T17:29:44.920Z,6.20
2018-02-01T17:32:12.467Z,6.30
2018-02-01T17:34:39.970Z,6.30
2018-02-01T17:37:07.531Z,6.20
2018-02-01T17:39:35.078Z,6.20
2018-02-01T17:42:02.604Z,6.20
2018-02-01T17:44:30.135Z,6.20
2018-02-01T17:46:57.729Z,6.20
2018-02-01T17:49:25.285Z,6.10
2018-02-01T17:51:52.794Z,6.10
2018-02-01T17:54:20.312Z,6.20
2018-02-01T17:56:47.902Z,6.10
2018-02-01T17:59:15.453Z,6.10
2018-02-01T18:01:42.981Z,6.10
2018-02-01T18:04:10.478Z,6.10
2018-02-01T18:06:37.996Z,6.10
2018-02-01T18:09:06.284Z,6.20
2018-02-01T18:11:34.572Z,6.20
2018-02-01T18:14:02.101Z,6.20
2018-02-01T18:16:30.447Z,6.20
2018-02-01T18:18:57.947Z,6.20
2018-02-01T18:21:25.513Z,6.20
2018-02-01T18:23:53.789Z,6.10
2018-02-01T18:26:22.072Z,6.10
2018-02-01T18:28:49.614Z,6.10
2018-02-01T18:31:17.901Z,6.10
2018-02-01T18:33:45.420Z,6.20
2018-02-01T18:36:12.930Z,6.20
2018-02-01T18:38:40.504Z,6.10
2018-02-01T18:41:08.008Z,6.10
2018-02-01T18:43:35.579Z,6.00
2018-02-01T18:46:03.885Z,6.00
2018-02-01T18:48:31.391Z,6.00
2018-02-01T18:50:59.793Z,6.00
2018-02-01T18:53:28.060Z,6.00
2018-02-01T18:55:56.328Z,6.00
2018-02-01T18:58:23.860Z,6.00
2018-02-01T19:00:51.385Z,6.00
2018-02-01T19:03:18.916Z,6.00
2018-02-01T19:05:47.219Z,6.00
2018-02-01T19:08:14.745Z,6.00
2018-02-01T19:10:43.062Z,6.00
2018-02-01T19:13:10.572Z,6.00
2018-02-01T19:15:38.883Z,6.00
2018-02-01T19:18:06.495Z,6.00
2018-02-01T19:20:34.028Z,6.00
2018-02-01T19:23:01.575Z,6.00
2018-02-01T19:25:29.117Z,6.10
2018-02-01T19:27:56.612Z,6.10
2018-02-01T19:30:24.162Z,6.10
2018-02-01T19:32:51.708Z,6.10
2018-02-01T19:35:19.216Z,6.10
2018-02-01T19:37:47.473Z,6.10
2018-02-01T19:40:14.995Z,6.10
2018-02-01T19:42:42.528Z,6.10
2018-02-01T19:45:10.864Z,6.10
2018-02-01T19:47:38.379Z,6.10
2018-02-01T19:50:05.921Z,6.00
2018-02-01T19:52:34.270Z,6.00
2018-02-01T19:55:01.828Z,6.00
2018-02-01T19:57:29.355Z,6.00
2018-02-01T19:59:56.949Z,6.10
2018-02-01T20:02:24.474Z,6.10
2018-02-01T20:04:51.979Z,6.00
2018-02-01T20:07:20.310Z,6.00
2018-02-01T20:09:47.845Z,6.00
2018-02-01T20:12:15.375Z,6.00
2018-02-01T20:14:43.811Z,6.20
2018-02-01T20:17:11.345Z,6.20
2018-02-01T20:19:38.854Z,6.20
2018-02-01T20:22:07.167Z,6.50
2018-02-01T20:24:34.843Z,6.50
2018-02-01T20:27:02.396Z,6.90
2018-02-01T20:29:29.927Z,7.30
2018-02-01T20:31:58.241Z,8.10
2018-02-01T20:34:25.812Z,8.10
2018-02-01T20:36:53.317Z,8.00
2018-02-01T20:39:21.653Z,7.90
2018-02-01T20:41:49.217Z,7.90
2018-02-01T20:44:16.770Z,8.20
2018-02-01T20:46:44.304Z,8.40
2018-02-01T20:49:11.873Z,8.60
2018-02-01T20:51:39.405Z,8.70
2018-02-01T20:54:07.039Z,8.60
2018-02-01T20:56:35.353Z,8.80
2018-02-01T20:59:02.873Z,8.70
2018-02-01T21:01:31.174Z,8.80
2018-02-01T21:03:58.693Z,8.80
2018-02-01T21:06:26.226Z,9.00
2018-02-01T21:08:53.752Z,9.20
2018-02-01T21:11:21.339Z,9.40
2018-02-01T21:13:48.860Z,9.50
2018-02-01T21:16:16.510Z,9.60
2018-02-01T21:18:44.035Z,9.70
2018-02-01T21:21:11.615Z,9.90
2018-02-01T21:23:39.944Z,10.00
2018-02-01T21:26:07.480Z,10.00
2018-02-01T21:28:35.057Z,10.20
2018-02-01T21:31:02.576Z,10.30
2018-02-01T21:33:30.132Z,10.40
2018-02-01T21:35:57.727Z,10.40
2018-02-01T21:38:25.263Z,10.50
2018-02-01T21:40:52.806Z,10.70
2018-02-01T21:43:21.215Z,10.80
2018-02-01T21:45:48.773Z,10.80
2018-02-01T21:48:16.400Z,10.50
2018-02-01T21:50:43.977Z,9.90
2018-02-01T21:53:11.524Z,9.50
2018-02-01T21:55:39.045Z,9.10
2018-02-01T21:58:06.584Z,8.70
2018-02-01T22:00:34.106Z,8.20
2018-02-01T22:03:01.650Z,7.90
2018-02-01T22:05:29.173Z,7.60
2018-02-01T22:07:56.696Z,7.40
2018-02-01T22:10:24.267Z,7.30
2018-02-01T22:12:51.787Z,7.20
2018-02-01T22:15:19.346Z,7.20
2018-02-01T22:17:46.849Z,7.10
2018-02-01T22:20:14.367Z,7.00
2018-02-01T22:22:41.887Z,6.90
2018-02-01T22:25:09.407Z,6.80
2018-02-01T22:27:36.949Z,6.70
2018-02-01T22:30:04.459Z,6.60
2018-02-01T22:32:31.980Z,6.60
2018-02-01T22:34:59.501Z,6.50
2018-02-01T22:37:27.072Z,6.50
2018-02-01T22:39:54.576Z,6.50
2018-02-01T22:42:22.096Z,6.50
2018-02-01T22:44:49.614Z,6.40
2018-02-01T22:47:17.931Z,6.40
2018-02-01T22:49:45.424Z,6.40
2018-02-01T22:52:12.918Z,6.40
2018-02-01T22:54:41.238Z,6.30
2018-02-01T22:57:08.737Z,6.30
2018-02-01T22:59:37.049Z,6.30
2018-02-01T23:02:04.558Z,6.30
2018-02-01T23:04:32.067Z,6.30
2018-02-01T23:06:59.614Z,6.30
2018-02-01T23:09:27.135Z,6.30
2018-02-01T23:11:56.184Z,6.20
2018-02-01T23:14:23.705Z,6.10
2018-02-01T23:16:52.027Z,6.20
2018-02-01T23:19:19.542Z,6.20
2018-02-01T23:21:47.867Z,6.10
2018-02-01T23:24:15.392Z,6.10
2018-02-01T23:26:42.969Z,6.10
2018-02-01T23:29:10.476Z,6.10
2018-02-01T23:31:37.998Z,6.10
2018-02-01T23:34:05.570Z,6.00
2018-02-01T23:36:33.103Z,6.00
2018-02-01T23:39:00.777Z,6.00
2018-02-01T23:41:28.311Z,5.90
2018-02-01T23:43:55.828Z,5.90
2018-02-01T23:46:24.240Z,5.90
2018-02-01T23:48:52.122Z,5.90
2018-02-01T23:51:19.867Z,5.80
2018-02-01T23:53:47.574Z,5.80
2018-02-01T23:56:15.100Z,5.80
2018-02-01T23:58:42.654Z,5.80
